ACT        NSW        VIC        QLD        SA        WA        TAS        NT        INFO        CALC            by VK5ZD

  Atmospheric Gas Attenuation - ITU Rec 676-11   --------------- db/100km ---------------
Station Date Time Temp RH % AH g/m3 Dew Point Wind Direction Speed kph Gust kph Barometer mB Rainfall Since 9am 24GHz 47GHz 76GHz 122GHz 134GHz 241GHz
Adelaide (West Terrace / Ngayirdapira) 24 18:40 36.2 12 5.05 2.3 28 35 1000.9 0 11.4 15.9 20.0 52.1 41.2 140.2
Adelaide Airport 24 18:40 31.8 32 10.69 13.2 26 30 1001 0 23.1 23.7 38.3 100.7 100.0 346.5
Andamooka 24 09:00 32.8 23 8.1 9.2 17 1013.1 0 17.7 20.4 30.0 78.6 72.5 250.0
Arkaroola 24 15:00 39 35 17 21.2 17 1013.1 0 35.5 30.9 56.9 150.4 162.5 565.4
Cape Borda 24 18:40 35.2 19 7.59 8.1 26 32 1001.7 0 16.6 19.0 27.3 71.5 64.9 223.5
Cape Jaffa 24 18:40 36.9 12 5.24 2.8 26 30 1013.1 0 11.7 16.3 20.7 53.8 43.0 146.5
Cape Willoughby 24 18:40 26.3 41 10.15 12 30 32 1013.1 0 22.2 24.8 39.5 103.8 101.8 351.9
Ceduna 24 18:40 34.2 23 8.72 10.1 30 39 1001 0 18.9 20.5 31.0 81.3 76.7 265.0
Clare 24 18:40 37.2 10 4.43 0.5 9 11 1002.1 0 10.1 15.1 18.3 47.4 35.6 120.4
Cleve 24 09:00 33 11 3.92 -1 19 1004.6 0 9.2 15.3 17.9 46.3 33.0 111.0
Cleve Airport 24 18:40 31.4 24 7.85 8.4 17 19 1002.5 0 17.3 20.1 29.4 77.0 70.6 243.0
Coober Pedy Airport 24 18:40 33.4 32 11.64 14.5 19 20 999.6 0 25.0 24.5 40.6 107.1 108.4 375.8
Coonawarra 24 18:40 38.8 8 3.85 -1.8 19 24 1000.5 0 8.9 14.3 16.5 42.6 30.2 101.7
Cultana (Defence) 24 18:40 39.1 9 4.39 0.4 28 30 1013.1 0 10.0 15.1 18.1 46.7 34.9 117.9
Cummins Airport 24 18:40 37.4 13 5.82 4.4 32 41 1001.4 0 12.9 16.6 21.8 56.8 47.3 161.7
Edinburgh 24 18:40 37.8 13 5.94 4.7 35 43 1000.7 0 13.1 16.6 22.0 57.3 48.1 164.6
Edithburgh 24 18:40 29.6 33 9.79 12 17 19 1013.1 0 21.3 23.4 36.7 96.5 93.7 323.8
Elliston 24 09:00 22 80 15.53 18.5 19 1006 0 33.9 34.6 63.5 167.9 179.6 623.1
Ernabella/Pukatja 24 18:40 32.8 43 15.15 18.6 37 44 997.5 2 32.3 29.7 53.4 141.3 150.3 522.5
Eudunda 24 09:00 30.5 13 4.05 -0.7 4 1008 0 9.5 15.9 18.9 48.8 35.3 118.7
Gluepot 24 09:00 32.8 14 4.93 1.7 4 1013.1 0 11.2 16.7 20.9 54.1 42.3 143.6
Hawker 24 09:00 35.5 21 8.53 10 13 1004.4 0 18.5 20.1 30.0 78.8 73.9 255.1
Hindmarsh Island 24 18:40 24 58 12.62 15.2 24 28 1001.2 0 27.6 28.8 49.5 130.7 134.7 466.8
Kadina 24 18:40 35.2 16 6.39 5.6 20 24 1000.6 0 14.1 17.6 23.9 62.3 53.6 183.9
Karoonda 24 09:00 30.1 27 8.23 9.2 4 1013.1 0 18.1 21.2 31.4 82.2 76.3 263.0
Keith 24 09:00 30.5 39 12.15 15 20 1007.8 0 26.2 26.3 44.3 116.7 119.1 412.8
Kimba 24 09:00 31.5 17 5.59 3.6 0 1013.1 0 12.6 17.7 23.0 59.8 49.1 167.3
Kingscote 24 18:40 35.7 14 5.74 4.1 13 15 1001.2 0 12.8 16.8 22.0 57.3 47.5 162.4
Kuitpo 24 18:40 36.8 11 4.78 1.5 20 28 1001 0 10.8 15.5 19.2 49.9 38.7 131.2
Kyancutta 24 15:00 41.3 15 8.18 9.6 17 1002.7 0 17.5 18.5 27.1 71.0 65.7 226.9
Lameroo Aws 24 18:40 39.7 10 5.03 2.4 19 19 1013.1 0 11.2 15.7 19.5 50.7 39.9 135.7
Leigh Creek 24 18:40 40 10 5.11 2.6 13 15 999.6 0 11.4 15.4 19.3 50.2 39.9 135.9
Loxton 24 18:40 37.6 31 14.02 17.8 11 13 1001 0 29.6 26.7 46.6 123.0 128.9 448.2
Marree Airport 24 18:40 42.2 6 3.42 -2.8 17 19 999.4 0 7.9 13.4 14.9 38.4 25.8 86.3
Minlaton Airport 24 18:40 34.5 19 7.32 7.5 19 20 1001.2 0 16.0 18.8 26.7 70.0 62.8 216.1
Minnipa Rs 24 18:40 32.6 19 6.62 6 20 22 1003.6 0 14.7 18.4 25.4 66.2 57.6 197.7
Moomba Airport 24 18:40 40.8 17 9.04 10.9 20 22 1000.1 0 19.3 19.5 29.5 77.6 73.8 255.4
Mount Barker 24 09:00 31.8 50 16.71 20.2 30 1013.1 0 35.5 33.1 61.1 161.5 174.2 605.6
Mount Crawford 24 18:40 35.7 10 4.1 -0.6 22 28 1002.1 0 9.5 15.0 17.8 45.9 33.5 112.7
Mount Gambier 24 18:40 38.2 10 4.66 1.3 19 22 1000.9 0 10.5 15.2 18.6 48.3 37.0 125.6
Mount Ive 24 09:00 33 9 3.21 -4.2 9 1005.9 0 7.7 14.6 16.1 41.5 27.1 90.0
Mount Lofty 24 18:40 33.2 15 5.4 3.1 9 15 1013.1 0 12.2 17.1 22.0 57.3 46.4 157.9
Murray Bridge 24 09:00 28.1 30 8.2 9.1 7 1013.1 0 18.1 21.6 32.1 84.0 77.9 268.2
Naracoorte 24 18:40 39.6 8 4 -0.8 33 37 1000.3 0 9.2 14.3 16.7 43.2 31.1 104.9
Noarlunga 24 18:40 33.7 27 9.98 12.1 7 11 1013.1 0 21.5 22.6 35.6 93.4 91.1 315.2
NULLARBOR 24 18:40 23.6 90 19.14 21.9 26 28 1001.1 2.2 41.5 40.5 78.5 207.9 229.3 796.4
Nuriootpa 24 18:40 37.9 12 5.51 3.6 11 13 1001.5 0 12.2 16.2 20.9 54.3 44.4 151.4
Oodnadatta 24 18:40 25.7 89 21.31 23.7 33 39 1003.1 21.8 45.9 43.7 86.9 230.2 257.3 893.9
Padthaway 24 18:40 39.8 7 3.54 -2.4 17 20 1013.1 0 8.2 14.2 15.9 40.9 27.8 93.1
Pallamana 24 18:40 42 9 5.08 2.6 13 19 1000.3 0 11.3 15.0 18.8 48.9 38.8 132.1
Parafield 24 18:40 38.8 10 4.81 1.7 35 44 1000.4 0 10.8 15.3 18.8 48.9 38.0 129.1
Parawa West 24 18:40 27.6 37 9.84 11.6 15 17 1013.1 0 21.5 24.0 37.8 99.3 96.6 333.8
Parndana 24 18:40 33.8 16 5.94 4.4 15 19 1013.1 0 13.2 17.6 23.4 60.9 51.0 174.2
Point Avoid 24 18:40 28.9 42 12 15 17 19 1013.1 0 25.9 26.7 44.8 118.1 120.2 416.5
Port Augusta 24 18:40 41.7 8 4.45 0.8 11 13 999.3 0 10.0 14.4 17.4 45.0 33.9 114.8
Port Lincoln Airport 24 18:40 31.6 32 10.58 12.9 6 7 1001.6 0 22.9 23.6 38.0 100.1 99.1 343.2
Port Pirie Airport Aws 24 18:40 40.2 9 4.64 1.3 9 9 999.3 0 10.4 14.8 18.1 47.0 36.0 122.1
Renmark Airport 24 18:40 41.4 9 4.93 2.2 22 26 1000.8 0 11.0 15.0 18.6 48.3 37.9 128.8
Robe Airport 24 18:40 35.7 11 4.51 0.7 15 17 1013.1 0 10.3 15.8 19.1 49.4 37.3 126.2
Roseworthy 24 18:40 37.5 19 8.55 10 33 41 999.9 0 18.4 19.6 29.3 76.8 72.1 248.9
Roxby Downs 24 18:40 38.9 9 4.35 0.3 11 13 999.4 0 9.9 14.7 17.7 45.8 34.2 115.6
Snowtown 24 18:40 40 6 3.06 -4.3 11 15 1000.5 0 7.3 13.4 14.4 37.1 23.7 78.7
Stenhouse Bay 24 18:40 32.3 21 7.21 7.2 6 6 1013.1 0 15.9 19.4 27.5 71.8 64.1 220.2
Strathalbyn 24 18:40 30.6 23 7.21 7.1 24 26 1000.9 0 16.0 19.4 27.6 72.3 64.7 222.4
Streaky Bay 24 09:00 25.9 54 13.07 16 13 1004.8 0 28.4 29.0 50.3 132.7 137.6 477.1
Tarcoola 24 18:40 33.8 24 8.91 10.4 26 30 1000 0 19.3 20.8 31.7 83.2 79.0 272.8
Victor Harbor 24 09:00 27.5 46 12.17 15 9 1013.1 0 26.4 27.4 46.3 121.9 124.4 431.2
Warooka 24 09:00 32.4 12 4.14 -0.4 19 1004.4 0 9.6 15.6 18.6 48.1 35.2 118.5
Whyalla 24 18:40 40.9 10 5.34 3.3 19 24 999.7 0 11.8 15.5 19.7 51.2 41.4 141.2
Woomera 24 18:40 38.1 9 4.18 -0.3 17 24 1000.3 0 9.6 14.7 17.4 45.1 33.1 111.8
Wudinna Airport 24 18:40 33.2 19 6.84 6.5 37 46 1002.8 0 15.1 18.5 25.8 67.4 59.3 203.5
Yongala 24 09:00 32.4 31 10.69 13.3 9 1013.1 0 23.0 23.9 38.5 101.2 100.3 347.3
Yunta 24 18:40 38.5 13 6.16 5.2 17 28 1013.1 0 13.5 17.1 22.7 59.2 50.2 171.8

Last Refresh: 24-Jan-2021 18:47:54

The information presented on this site is sourced from the Bureau of Meteorology.  Copyright in all material sourced from the Bureau of Meteorology resides with the Commonwealth of Australia.